createdAt,value
2022-12-13T00:02:07.489Z,24.95
2022-12-13T00:04:37.468Z,25.83
2022-12-13T00:07:07.429Z,25.63
2022-12-13T00:09:38.495Z,23.05
2022-12-13T00:12:08.447Z,21.45
2022-12-13T00:14:38.432Z,26.20
2022-12-13T00:17:09.262Z,25.92
2022-12-13T00:19:39.340Z,29.75
2022-12-13T00:22:09.222Z,23.38
2022-12-13T00:24:42.938Z,24.27
2022-12-13T00:27:16.032Z,23.95
2022-12-13T00:29:45.899Z,24.15
2022-12-13T00:32:15.834Z,23.90
2022-12-13T00:34:45.784Z,28.73
2022-12-13T00:37:15.745Z,29.80
2022-12-13T00:39:45.620Z,27.65
2022-12-13T00:42:15.514Z,26.95
2022-12-13T00:44:45.441Z,30.38
2022-12-13T00:47:15.389Z,30.25
2022-12-13T00:49:45.291Z,34.80
2022-12-13T00:52:15.517Z,32.90
2022-12-13T00:54:45.419Z,28.15
2022-12-13T00:57:15.440Z,25.63
2022-12-13T00:59:45.298Z,25.08
2022-12-13T01:02:15.316Z,26.75
2022-12-13T01:04:45.338Z,25.83
2022-12-13T01:07:15.249Z,26.10
2022-12-13T01:09:45.299Z,29.10
2022-12-13T01:12:15.348Z,24.98
2022-12-13T01:14:45.292Z,28.30
2022-12-13T01:17:15.924Z,29.73
2022-12-13T01:19:45.913Z,28.80
2022-12-13T01:22:15.823Z,27.27
2022-12-13T01:24:45.684Z,27.90
2022-12-13T01:27:15.584Z,31.90
2022-12-13T01:29:45.470Z,25.50
2022-12-13T01:32:15.324Z,29.55
2022-12-13T01:34:45.259Z,28.08
2022-12-13T01:37:15.100Z,30.15
2022-12-13T01:39:44.992Z,25.42
2022-12-13T01:42:17.100Z,29.90
2022-12-13T01:45:08.167Z,30.63
2022-12-13T01:47:47.873Z,23.40
2022-12-13T01:50:28.673Z,26.92
2022-12-13T01:53:00.188Z,29.08
2022-12-13T01:55:41.489Z,28.92
2022-12-13T01:58:12.303Z,27.17
2022-12-13T02:00:43.557Z,25.98
2022-12-13T02:03:21.231Z,25.85
2022-12-13T02:06:04.634Z,25.45
2022-12-13T02:08:36.042Z,25.40
2022-12-13T02:11:07.323Z,27.70
2022-12-13T02:13:36.849Z,29.13
2022-12-13T02:16:40.604Z,23.88
2022-12-13T02:19:50.054Z,29.38
2022-12-13T02:22:53.133Z,29.45
2022-12-13T02:26:01.346Z,25.20
2022-12-13T02:29:10.349Z,24.35
2022-12-13T02:32:04.654Z,25.20
2022-12-13T02:34:58.930Z,25.02
2022-12-13T02:37:55.064Z,28.10
2022-12-13T02:40:40.106Z,23.38
2022-12-13T02:43:16.659Z,26.35
2022-12-13T02:45:56.233Z,24.23
2022-12-13T02:48:32.021Z,28.50
2022-12-13T02:51:04.558Z,29.33
2022-12-13T02:53:36.119Z,29.70
2022-12-13T02:56:06.093Z,24.27
2022-12-13T02:58:39.684Z,26.33
2022-12-13T03:01:41.693Z,28.52
2022-12-13T03:04:37.762Z,25.67
2022-12-13T03:07:27.813Z,26.48
2022-12-13T03:10:10.477Z,28.40
2022-12-13T03:13:16.146Z,24.35
2022-12-13T03:16:24.861Z,24.85
2022-12-13T03:18:57.191Z,24.40
2022-12-13T03:21:28.195Z,22.48
2022-12-13T03:23:58.060Z,23.92
2022-12-13T03:26:28.915Z,23.38
2022-12-13T03:28:58.818Z,24.52
2022-12-13T03:31:28.824Z,29.75
2022-12-13T03:33:58.774Z,24.00
2022-12-13T03:36:29.263Z,24.83
2022-12-13T03:38:59.310Z,22.98
2022-12-13T03:41:34.492Z,27.83
2022-12-13T03:44:09.562Z,26.00
2022-12-13T03:46:39.699Z,24.95
2022-12-13T03:49:13.594Z,27.30
2022-12-13T03:51:47.173Z,22.75
2022-12-13T03:54:17.153Z,26.17
2022-12-13T03:56:47.038Z,23.13
2022-12-13T03:59:17.004Z,24.15
2022-12-13T04:01:46.877Z,22.15
2022-12-13T04:04:16.839Z,24.80
2022-12-13T04:06:46.753Z,24.60
2022-12-13T04:09:16.661Z,23.73
2022-12-13T04:12:06.185Z,23.20
2022-12-13T04:14:36.060Z,21.88
2022-12-13T04:17:05.943Z,22.50
2022-12-13T04:19:35.867Z,20.83
2022-12-13T04:22:06.159Z,25.33
2022-12-13T04:24:35.683Z,22.15
2022-12-13T04:27:05.469Z,21.35
2022-12-13T04:29:35.181Z,24.52
2022-12-13T04:32:26.395Z,24.00
2022-12-13T04:35:01.018Z,21.65
2022-12-13T04:37:31.960Z,26.73
2022-12-13T04:40:01.586Z,24.73
2022-12-13T04:42:31.217Z,22.92
2022-12-13T04:45:00.925Z,25.10
2022-12-13T04:47:30.463Z,22.23
2022-12-13T04:50:00.151Z,25.05
2022-12-13T04:52:29.823Z,27.23
2022-12-13T04:54:59.352Z,26.63
2022-12-13T04:57:29.024Z,24.30
2022-12-13T04:59:58.611Z,22.88
2022-12-13T05:02:28.385Z,23.40
2022-12-13T05:04:57.939Z,21.58
2022-12-13T05:07:28.938Z,23.60
2022-12-13T05:09:58.545Z,20.92
2022-12-13T05:12:28.143Z,27.27
2022-12-13T05:14:57.856Z,20.75
2022-12-13T05:17:27.424Z,22.75
2022-12-13T05:19:57.261Z,19.63
2022-12-13T05:22:28.416Z,19.52
2022-12-13T05:24:58.361Z,22.15
2022-12-13T05:27:28.321Z,20.98
2022-12-13T05:30:02.857Z,18.40
2022-12-13T05:32:43.895Z,21.23
2022-12-13T05:35:21.655Z,24.08
2022-12-13T05:37:55.098Z,21.02
2022-12-13T05:40:29.982Z,21.88
2022-12-13T05:43:01.987Z,24.83
2022-12-13T05:45:34.272Z,20.27
2022-12-13T05:48:04.328Z,20.23
2022-12-13T05:50:34.247Z,19.27
2022-12-13T05:53:05.542Z,20.48
2022-12-13T05:55:35.699Z,22.98
2022-12-13T05:58:05.668Z,21.58
2022-12-13T06:00:43.353Z,24.10
2022-12-13T06:03:13.351Z,21.48
2022-12-13T06:05:45.496Z,18.27
2022-12-13T06:08:24.588Z,20.77
2022-12-13T06:11:09.995Z,21.80
2022-12-13T06:13:42.821Z,23.35
2022-12-13T06:16:22.468Z,18.45
2022-12-13T06:19:03.129Z,19.20
2022-12-13T06:21:41.457Z,20.02
2022-12-13T06:24:22.504Z,21.00
2022-12-13T06:26:53.273Z,17.55
2022-12-13T06:29:25.754Z,21.88
2022-12-13T06:32:02.417Z,18.83
2022-12-13T06:34:35.568Z,18.05
2022-12-13T06:37:09.599Z,19.98
2022-12-13T06:39:39.631Z,16.48
2022-12-13T06:42:22.397Z,18.63
2022-12-13T06:44:56.021Z,20.02
2022-12-13T06:47:31.752Z,19.38
2022-12-13T06:50:05.461Z,17.02
2022-12-13T06:52:36.295Z,19.85
2022-12-13T06:55:06.939Z,16.25
2022-12-13T06:57:37.054Z,19.05
2022-12-13T07:00:08.213Z,19.70
2022-12-13T07:02:39.671Z,20.40
2022-12-13T07:05:10.148Z,18.77
2022-12-13T07:07:40.048Z,20.48
2022-12-13T07:10:21.586Z,20.77
2022-12-13T07:12:51.892Z,19.80
2022-12-13T07:15:21.761Z,17.13
2022-12-13T07:17:54.754Z,19.42
2022-12-13T07:20:25.187Z,16.60
2022-12-13T07:22:59.210Z,18.40
2022-12-13T07:25:30.112Z,18.70
2022-12-13T07:28:05.367Z,16.58
2022-12-13T07:30:42.461Z,17.73
2022-12-13T07:33:13.035Z,18.77
2022-12-13T07:35:55.412Z,22.45
2022-12-13T07:38:25.591Z,19.85
2022-12-13T07:40:59.795Z,16.38
2022-12-13T07:43:30.839Z,20.90
2022-12-13T07:46:07.214Z,20.88
2022-12-13T07:48:37.410Z,20.33
2022-12-13T07:51:13.531Z,22.73
2022-12-13T07:53:43.990Z,21.98
2022-12-13T07:56:14.643Z,19.30
2022-12-13T07:58:45.771Z,25.20
2022-12-13T08:01:15.741Z,23.08
2022-12-13T08:03:45.682Z,19.00
2022-12-13T08:06:15.726Z,19.52
2022-12-13T08:08:45.590Z,22.65
2022-12-13T08:11:19.892Z,21.23
2022-12-13T08:13:49.863Z,20.15
2022-12-13T08:16:26.188Z,19.52
2022-12-13T08:19:03.313Z,23.38
2022-12-13T08:22:01.292Z,18.13
2022-12-13T08:24:33.292Z,27.38
2022-12-13T08:27:05.001Z,20.33
2022-12-13T08:29:36.391Z,21.90
2022-12-13T08:32:14.690Z,21.50
2022-12-13T08:34:44.642Z,18.60
2022-12-13T08:37:15.397Z,23.10
2022-12-13T08:39:46.313Z,24.33
2022-12-13T08:42:20.068Z,20.75
2022-12-13T08:44:53.221Z,22.95
2022-12-13T08:47:26.543Z,19.75
2022-12-13T08:50:01.818Z,21.25
2022-12-13T08:52:39.311Z,22.15
2022-12-13T08:55:15.662Z,22.75
2022-12-13T08:57:46.516Z,25.67
2022-12-13T09:00:21.533Z,22.17
2022-12-13T09:02:52.320Z,23.48
2022-12-13T09:05:32.997Z,20.10
2022-12-13T09:08:24.105Z,22.17
2022-12-13T09:11:10.520Z,20.73
2022-12-13T09:13:43.847Z,23.20
2022-12-13T09:16:23.233Z,19.17
2022-12-13T09:18:56.932Z,31.60
2022-12-13T09:21:31.510Z,23.60
2022-12-13T09:24:03.005Z,22.70
2022-12-13T09:26:37.954Z,21.13
2022-12-13T09:29:10.533Z,21.70
2022-12-13T09:31:42.114Z,25.48
2022-12-13T09:34:12.956Z,20.60
2022-12-13T09:36:43.823Z,24.98
2022-12-13T09:39:13.910Z,21.85
2022-12-13T09:41:53.668Z,29.92
2022-12-13T09:44:48.186Z,24.42
2022-12-13T09:47:47.116Z,22.75
2022-12-13T09:50:28.193Z,24.65
2022-12-13T09:53:00.273Z,30.17
2022-12-13T09:55:36.383Z,29.00
2022-12-13T09:58:16.018Z,22.95
2022-12-13T10:00:46.975Z,23.75
2022-12-13T10:03:18.485Z,25.05
2022-12-13T10:06:01.802Z,22.05
2022-12-13T10:08:40.237Z,23.95
2022-12-13T10:11:13.761Z,23.73
2022-12-13T10:14:05.609Z,23.90
2022-12-13T10:16:51.370Z,21.27
2022-12-13T10:19:46.293Z,25.40
2022-12-13T10:22:21.572Z,27.65
2022-12-13T10:25:06.809Z,22.00
2022-12-13T10:27:47.912Z,25.90
2022-12-13T10:30:28.763Z,23.38
2022-12-13T10:33:05.432Z,24.73
2022-12-13T10:35:43.067Z,22.52
2022-12-13T10:38:32.512Z,27.85
2022-12-13T10:41:02.911Z,23.58
2022-12-13T10:43:33.738Z,26.73
2022-12-13T10:46:05.521Z,29.63
2022-12-13T10:48:48.902Z,27.85
2022-12-13T10:51:23.338Z,28.23
2022-12-13T10:54:00.281Z,28.75
2022-12-13T10:56:42.824Z,26.77
2022-12-13T10:59:33.733Z,25.08
2022-12-13T11:02:22.484Z,31.80
2022-12-13T11:04:53.411Z,34.40
2022-12-13T11:07:33.111Z,28.58
2022-12-13T11:10:27.960Z,39.60
2022-12-13T11:13:07.374Z,36.05
2022-12-13T11:15:40.384Z,38.58
2022-12-13T11:18:26.063Z,30.63
2022-12-13T11:21:09.475Z,36.78
2022-12-13T11:23:47.635Z,29.90
2022-12-13T11:26:24.012Z,31.17
2022-12-13T11:29:29.447Z,44.77
2022-12-13T11:32:22.757Z,51.90
2022-12-13T11:35:15.229Z,34.05
2022-12-13T11:38:24.515Z,30.25
2022-12-13T11:41:31.138Z,38.22
2022-12-13T11:44:11.434Z,34.03
2022-12-13T11:46:53.618Z,31.80
2022-12-13T11:49:44.471Z,32.90
2022-12-13T11:52:53.287Z,34.28
2022-12-13T11:55:38.834Z,29.08
2022-12-13T12:01:42.040Z,42.70
2022-12-13T12:04:53.718Z,35.05
2022-12-13T12:08:21.002Z,46.00
2022-12-13T12:10:49.788Z,41.88
2022-12-13T12:13:26.577Z,38.65
2022-12-13T12:16:28.246Z,38.92
2022-12-13T12:19:01.793Z,34.58
2022-12-13T12:22:15.091Z,46.75
2022-12-13T12:25:09.633Z,53.28
2022-12-13T12:28:08.755Z,49.90
2022-12-13T12:31:11.787Z,64.63
2022-12-13T12:34:12.524Z,53.95
2022-12-13T12:37:11.577Z,46.55
2022-12-13T12:40:07.672Z,46.55
2022-12-13T12:43:16.456Z,49.78
2022-12-13T12:46:25.532Z,45.28
2022-12-13T12:49:34.366Z,49.78
2022-12-13T12:52:39.168Z,51.80
2022-12-13T12:55:35.805Z,49.05
2022-12-13T12:58:44.648Z,55.28
2022-12-13T13:01:53.618Z,50.00
2022-12-13T13:04:29.244Z,50.08
2022-12-13T13:07:23.145Z,51.67
2022-12-13T13:09:55.747Z,55.38
2022-12-13T13:12:29.500Z,50.90
2022-12-13T13:15:00.715Z,58.42
2022-12-13T13:17:49.826Z,54.80
2022-12-13T13:20:30.095Z,58.33
2022-12-13T13:23:38.785Z,60.50
2022-12-13T13:26:23.450Z,65.00
2022-12-13T13:28:47.519Z,61.33
2022-12-13T13:31:17.764Z,61.47
2022-12-13T13:33:53.148Z,59.20
2022-12-13T13:36:50.262Z,55.00
2022-12-13T13:39:22.185Z,54.85
2022-12-13T13:42:19.217Z,51.42
2022-12-13T13:45:03.400Z,56.00
2022-12-13T13:47:42.939Z,60.25
2022-12-13T13:50:51.812Z,57.63
2022-12-13T13:53:57.593Z,56.10
2022-12-13T13:56:55.197Z,57.15
2022-12-13T14:00:03.850Z,57.40
2022-12-13T14:03:22.214Z,52.90
2022-12-13T14:06:32.586Z,56.63
2022-12-13T14:09:41.705Z,60.13
2022-12-13T14:12:50.390Z,73.47
2022-12-13T14:15:59.433Z,55.35
2022-12-13T14:19:08.222Z,62.22
2022-12-13T14:22:04.074Z,51.50
2022-12-13T14:25:12.799Z,61.40
2022-12-13T14:28:04.485Z,56.50
2022-12-13T14:30:35.135Z,59.67
2022-12-13T14:33:05.128Z,64.65
2022-12-13T14:35:36.075Z,59.95
2022-12-13T14:38:08.395Z,55.67
2022-12-13T14:40:49.324Z,62.75
2022-12-13T14:43:33.635Z,54.08
2022-12-13T14:46:06.342Z,54.67
2022-12-13T14:48:47.784Z,55.35
2022-12-13T14:51:39.523Z,56.97
2022-12-13T14:54:16.895Z,48.05
2022-12-13T14:57:06.714Z,51.22
2022-12-13T14:59:36.682Z,54.22
2022-12-13T15:02:08.693Z,48.53
2022-12-13T15:04:39.501Z,47.15
2022-12-13T15:07:15.241Z,52.50
2022-12-13T15:09:47.765Z,51.25
2022-12-13T15:12:24.233Z,55.90
2022-12-13T15:15:08.241Z,47.30
2022-12-13T15:17:40.457Z,54.20
2022-12-13T15:20:32.198Z,50.75
2022-12-13T15:23:09.477Z,44.65
2022-12-13T15:25:40.336Z,42.28
2022-12-13T15:28:18.168Z,47.78
2022-12-13T15:30:50.557Z,49.95
2022-12-13T15:33:34.420Z,48.60
2022-12-13T15:36:20.795Z,42.38
2022-12-13T15:39:03.279Z,44.92
2022-12-13T15:41:44.467Z,49.33
2022-12-13T15:44:25.535Z,56.60
2022-12-13T15:47:10.299Z,64.55
2022-12-13T15:50:03.648Z,53.80
2022-12-13T15:52:48.559Z,42.70
2022-12-13T15:55:28.999Z,45.83
2022-12-13T15:58:00.500Z,47.40
2022-12-13T16:00:33.058Z,46.45
2022-12-13T16:03:16.659Z,46.33
2022-12-13T16:05:56.640Z,42.63
2022-12-13T16:08:37.317Z,45.92
2022-12-13T16:11:08.830Z,49.33
2022-12-13T16:13:40.335Z,42.10
2022-12-13T16:16:31.893Z,48.92
2022-12-13T16:19:03.218Z,59.78
2022-12-13T16:21:32.784Z,46.05
2022-12-13T16:24:02.331Z,48.17
2022-12-13T16:26:33.068Z,45.80
2022-12-13T16:29:02.884Z,47.83
2022-12-13T16:31:37.116Z,45.88
2022-12-13T16:34:08.735Z,50.58
2022-12-13T16:36:38.513Z,44.08
2022-12-13T16:39:12.183Z,45.83
2022-12-13T16:41:48.033Z,43.78
2022-12-13T16:44:42.909Z,45.00
2022-12-13T16:47:22.154Z,50.17
2022-12-13T16:50:04.395Z,48.50
2022-12-13T16:52:34.284Z,39.58
2022-12-13T16:55:04.235Z,41.75
2022-12-13T16:57:33.971Z,43.08
2022-12-13T17:00:03.710Z,42.72
2022-12-13T17:02:33.322Z,45.15
2022-12-13T17:05:02.942Z,37.88
2022-12-13T17:07:37.158Z,44.42
2022-12-13T17:10:07.089Z,34.78
2022-12-13T17:12:36.659Z,34.63
2022-12-13T17:15:06.831Z,47.95
2022-12-13T17:17:38.282Z,40.60
2022-12-13T17:20:10.760Z,45.83
2022-12-13T17:22:40.673Z,42.58
2022-12-13T17:25:11.083Z,38.08
2022-12-13T17:27:42.052Z,38.08
2022-12-13T17:30:16.818Z,36.10
2022-12-13T17:32:46.792Z,43.95
2022-12-13T17:35:18.286Z,36.28
2022-12-13T17:37:49.524Z,43.70
2022-12-13T17:40:19.876Z,38.55
2022-12-13T17:42:53.737Z,41.75
2022-12-13T17:45:24.769Z,38.15
2022-12-13T17:47:54.730Z,39.38
2022-12-13T17:50:24.644Z,39.97
2022-12-13T17:52:54.555Z,40.33
2022-12-13T17:55:24.539Z,46.92
2022-12-13T17:57:56.499Z,35.80
2022-12-13T18:00:27.438Z,40.00
2022-12-13T18:02:57.374Z,40.55
2022-12-13T18:05:27.963Z,39.03
2022-12-13T18:07:57.915Z,49.33
2022-12-13T18:10:30.085Z,43.60
2022-12-13T18:13:00.641Z,48.63
2022-12-13T18:15:30.338Z,44.85
2022-12-13T18:18:15.426Z,42.35
2022-12-13T18:20:46.088Z,37.00
2022-12-13T18:23:16.375Z,40.42
2022-12-13T18:25:46.155Z,41.10
2022-12-13T18:28:15.924Z,41.83
2022-12-13T18:30:45.626Z,44.03
2022-12-13T18:33:15.339Z,43.60
2022-12-13T18:35:45.152Z,41.28
2022-12-13T18:38:15.570Z,34.90
2022-12-13T18:40:45.799Z,34.70
2022-12-13T18:43:15.718Z,39.65
2022-12-13T18:45:45.979Z,40.28
2022-12-13T18:48:16.176Z,38.58
2022-12-13T18:50:48.919Z,34.30
2022-12-13T18:53:19.008Z,36.80
2022-12-13T18:55:48.912Z,36.58
2022-12-13T18:58:18.993Z,36.92
2022-12-13T19:00:49.071Z,39.08
2022-12-13T19:03:19.173Z,33.15
2022-12-13T19:05:49.149Z,36.40
2022-12-13T19:08:18.890Z,34.53
2022-12-13T19:10:49.766Z,37.83
2022-12-13T19:13:19.433Z,35.60
2022-12-13T19:15:49.082Z,32.78
2022-12-13T19:18:18.738Z,37.90
2022-12-13T19:20:55.323Z,37.05
2022-12-13T19:23:25.235Z,37.35
2022-12-13T19:25:55.367Z,37.83
2022-12-13T19:28:25.324Z,38.08
2022-12-13T19:30:55.065Z,33.88
2022-12-13T19:33:24.978Z,40.30
2022-12-13T19:35:54.853Z,39.42
2022-12-13T19:38:25.416Z,38.63
2022-12-13T19:40:55.900Z,38.50
2022-12-13T19:43:26.279Z,37.25
2022-12-13T19:45:56.460Z,39.50
2022-12-13T19:48:26.496Z,40.75
2022-12-13T19:51:01.944Z,36.47
2022-12-13T19:53:32.722Z,43.88
2022-12-13T19:56:02.940Z,38.47
2022-12-13T19:58:32.940Z,33.78
2022-12-13T20:01:06.988Z,35.88
2022-12-13T20:03:43.252Z,36.55
2022-12-13T20:06:15.072Z,41.03
2022-12-13T20:08:45.259Z,34.72
2022-12-13T20:11:20.725Z,36.80
2022-12-13T20:13:51.906Z,41.10
2022-12-13T20:16:24.354Z,42.13
2022-12-13T20:18:59.824Z,36.70
2022-12-13T20:21:30.868Z,35.88
2022-12-13T20:24:00.925Z,45.17
2022-12-13T20:26:32.953Z,46.55
2022-12-13T20:29:02.648Z,38.22
2022-12-13T20:31:35.345Z,36.15
2022-12-13T20:34:08.349Z,36.28
2022-12-13T20:36:38.485Z,36.67
2022-12-13T20:39:09.758Z,40.25
2022-12-13T20:41:40.207Z,41.05
2022-12-13T20:44:11.355Z,38.50
2022-12-13T20:46:41.408Z,33.78
2022-12-13T20:49:11.846Z,37.17
2022-12-13T20:51:43.431Z,36.30
2022-12-13T20:54:13.160Z,35.13
2022-12-13T20:56:42.968Z,40.50
2022-12-13T20:59:14.966Z,40.58
2022-12-13T21:01:48.905Z,42.30
2022-12-13T21:04:19.159Z,37.75
2022-12-13T21:06:48.749Z,41.70
2022-12-13T21:09:18.587Z,37.92
2022-12-13T21:11:51.545Z,39.72
2022-12-13T21:14:31.814Z,34.15
2022-12-13T21:17:03.957Z,34.60
2022-12-13T21:19:39.357Z,44.10
2022-12-13T21:22:10.356Z,37.85
2022-12-13T21:24:40.278Z,34.95
2022-12-13T21:27:10.227Z,37.78
2022-12-13T21:29:40.201Z,39.92
2022-12-13T21:32:10.641Z,37.30
2022-12-13T21:34:41.498Z,34.63
2022-12-13T21:37:11.492Z,37.88
2022-12-13T21:39:42.153Z,38.97
2022-12-13T21:42:12.308Z,36.17
2022-12-13T21:44:42.276Z,37.83
2022-12-13T21:47:13.205Z,39.60
2022-12-13T21:49:48.695Z,37.25
2022-12-13T21:52:19.256Z,40.17
2022-12-13T21:54:52.780Z,43.53
2022-12-13T21:57:45.296Z,41.92
2022-12-13T22:00:16.160Z,43.85
2022-12-13T22:02:47.119Z,40.08
2022-12-13T22:05:17.059Z,45.00
2022-12-13T22:07:48.241Z,38.95
2022-12-13T22:10:17.911Z,38.25
2022-12-13T22:12:47.587Z,37.88
2022-12-13T22:15:17.997Z,40.55
2022-12-13T22:17:47.611Z,36.50
2022-12-13T22:20:17.877Z,39.72
2022-12-13T22:22:50.123Z,38.58
2022-12-13T22:25:20.504Z,38.78
2022-12-13T22:27:50.133Z,43.22
2022-12-13T22:30:19.862Z,38.42
2022-12-13T22:32:49.550Z,40.88
2022-12-13T22:35:19.196Z,40.67
2022-12-13T22:37:51.743Z,38.35
2022-12-13T22:40:23.096Z,34.08
2022-12-13T22:42:53.352Z,42.53
2022-12-13T22:45:23.239Z,42.33
2022-12-13T22:47:53.187Z,46.83
2022-12-13T22:50:23.170Z,46.47
2022-12-13T22:52:53.105Z,46.65
2022-12-13T22:55:23.185Z,44.20
2022-12-13T22:57:53.395Z,46.10
2022-12-13T23:00:23.439Z,51.78
2022-12-13T23:02:56.278Z,48.42
2022-12-13T23:05:26.256Z,49.72
2022-12-13T23:07:56.205Z,48.75
2022-12-13T23:10:45.464Z,45.38
2022-12-13T23:13:18.044Z,51.28
2022-12-13T23:15:49.441Z,50.40
2022-12-13T23:18:19.277Z,48.72
2022-12-13T23:20:49.059Z,57.35
2022-12-13T23:23:18.716Z,46.88
2022-12-13T23:25:48.954Z,48.05
2022-12-13T23:28:18.884Z,55.33
2022-12-13T23:30:48.533Z,52.97
2022-12-13T23:33:18.177Z,48.42
2022-12-13T23:35:47.889Z,53.88
2022-12-13T23:38:17.476Z,51.38
2022-12-13T23:40:48.204Z,46.38
2022-12-13T23:43:18.445Z,50.67
2022-12-13T23:45:48.395Z,47.28
2022-12-13T23:48:22.364Z,48.25
2022-12-13T23:50:55.804Z,56.10
2022-12-13T23:53:26.131Z,52.25
2022-12-13T23:55:56.109Z,55.55
2022-12-13T23:58:27.670Z,55.55
